createdAt,value
2019-05-06T00:01:25.136Z,101860.00
2019-05-06T00:03:54.616Z,101859.00
2019-05-06T00:06:24.216Z,101855.00
2019-05-06T00:08:54.593Z,101852.00
2019-05-06T00:11:24.244Z,101851.00
2019-05-06T00:13:54.505Z,101852.00
2019-05-06T00:16:24.141Z,101850.00
2019-05-06T00:18:54.214Z,101851.00
2019-05-06T00:21:24.528Z,101850.00
2019-05-06T00:23:54.817Z,101845.00
2019-05-06T00:26:33.525Z,101847.00
2019-05-06T00:29:04.723Z,101842.00
2019-05-06T00:31:34.674Z,101846.00
2019-05-06T00:34:04.546Z,101848.00
2019-05-06T00:36:34.449Z,101849.00
2019-05-06T00:39:07.233Z,101841.00
2019-05-06T00:41:36.764Z,101831.00
2019-05-06T00:44:06.216Z,101841.00
2019-05-06T00:46:35.652Z,101850.00
2019-05-06T00:49:05.102Z,101845.00
2019-05-06T00:51:34.667Z,101850.00
2019-05-06T00:54:17.498Z,101845.00
2019-05-06T00:56:47.047Z,101844.00
2019-05-06T00:59:16.500Z,101851.00
2019-05-06T01:01:45.959Z,101851.00
2019-05-06T01:04:15.494Z,101852.00
2019-05-06T01:06:45.016Z,101843.00
2019-05-06T01:09:16.831Z,101852.00
2019-05-06T01:11:47.961Z,101852.00
2019-05-06T01:14:19.139Z,101858.00
2019-05-06T01:16:48.614Z,101853.00
2019-05-06T01:19:18.160Z,101856.00
2019-05-06T01:21:47.719Z,101850.00
2019-05-06T01:24:17.172Z,101850.00
2019-05-06T01:26:46.624Z,101850.00
2019-05-06T01:29:16.068Z,101847.00
2019-05-06T01:31:46.263Z,101849.00
2019-05-06T01:34:15.808Z,101848.00
2019-05-06T01:36:45.306Z,101840.00
2019-05-06T01:39:19.118Z,101835.00
2019-05-06T01:41:56.345Z,101841.00
2019-05-06T01:44:25.835Z,101838.00
2019-05-06T01:46:55.361Z,101839.00
2019-05-06T01:49:24.897Z,101840.00
2019-05-06T01:51:54.862Z,101835.00
2019-05-06T01:54:24.874Z,101840.00
2019-05-06T01:56:55.379Z,101850.00
2019-05-06T01:59:29.214Z,101842.00
2019-05-06T02:02:00.731Z,101846.00
2019-05-06T02:04:27.269Z,101841.00
2019-05-06T02:06:56.706Z,101831.00
2019-05-06T02:09:26.196Z,101837.00
2019-05-06T02:11:55.641Z,101841.00
2019-05-06T02:14:25.090Z,101846.00
2019-05-06T02:16:54.833Z,101850.00
2019-05-06T02:19:24.384Z,101847.00
2019-05-06T02:22:04.996Z,101840.00
2019-05-06T02:24:38.936Z,101844.00
2019-05-06T02:27:08.391Z,101847.00
2019-05-06T02:29:43.740Z,101849.00
2019-05-06T02:32:26.309Z,101842.00
2019-05-06T02:34:54.669Z,101842.00
2019-05-06T02:37:34.269Z,101834.00
2019-05-06T02:40:04.167Z,101839.00
2019-05-06T02:42:33.956Z,101832.00
2019-05-06T02:45:04.228Z,101833.00
2019-05-06T02:47:42.934Z,101834.00
2019-05-06T02:50:13.964Z,101838.00
2019-05-06T02:52:44.285Z,101836.00
2019-05-06T02:55:14.069Z,101836.00
2019-05-06T02:57:44.139Z,101838.00
2019-05-06T03:00:18.306Z,101825.00
2019-05-06T03:02:48.505Z,101828.00
2019-05-06T03:05:18.295Z,101817.00
2019-05-06T03:07:47.746Z,101819.00
2019-05-06T03:10:17.898Z,101815.00
2019-05-06T03:12:47.351Z,101824.00
2019-05-06T03:15:17.183Z,101815.00
2019-05-06T03:17:46.641Z,101815.00
2019-05-06T03:20:43.895Z,101823.00
2019-05-06T03:23:15.270Z,101829.00
2019-05-06T03:25:46.383Z,101831.00
2019-05-06T03:28:15.903Z,101832.00
2019-05-06T03:30:46.246Z,101829.00
2019-05-06T03:33:37.242Z,101823.00
2019-05-06T03:36:04.402Z,101822.00
2019-05-06T03:38:18.408Z,101822.00
2019-05-06T03:40:47.894Z,101822.00
2019-05-06T03:43:17.429Z,101819.00
2019-05-06T03:45:48.622Z,101815.00
2019-05-06T03:48:19.752Z,101818.00
2019-05-06T03:50:49.316Z,101815.00
2019-05-06T03:53:19.017Z,101810.00
2019-05-06T03:55:53.743Z,101807.00
2019-05-06T03:58:26.873Z,101811.00
2019-05-06T04:00:58.271Z,101802.00
2019-05-06T04:03:42.396Z,101799.00
2019-05-06T04:05:59.236Z,101803.00
2019-05-06T04:08:29.005Z,101803.00
2019-05-06T04:10:59.464Z,101804.00
2019-05-06T04:13:32.999Z,101817.00
2019-05-06T04:16:06.338Z,101804.00
2019-05-06T04:18:55.798Z,101806.00
2019-05-06T04:21:43.626Z,101802.00
2019-05-06T04:24:33.694Z,101794.00
2019-05-06T04:27:33.271Z,101797.00
2019-05-06T04:30:04.659Z,101801.00
2019-05-06T04:32:34.073Z,101796.00
2019-05-06T04:35:04.978Z,101811.00
2019-05-06T04:37:34.645Z,101800.00
2019-05-06T04:40:06.488Z,101815.00
2019-05-06T04:42:36.258Z,101814.00
2019-05-06T04:45:06.464Z,101801.00
2019-05-06T04:47:36.675Z,101811.00
2019-05-06T04:50:08.869Z,101809.00
2019-05-06T04:52:38.392Z,101801.00
2019-05-06T04:55:08.092Z,101804.00
2019-05-06T04:57:37.725Z,101806.00
2019-05-06T05:00:07.943Z,101797.00
2019-05-06T05:02:37.586Z,101802.00
2019-05-06T05:05:07.900Z,101799.00
2019-05-06T05:07:37.600Z,101801.00
2019-05-06T05:10:09.039Z,101798.00
2019-05-06T05:12:52.772Z,101805.00
2019-05-06T05:15:32.413Z,101793.00
2019-05-06T05:18:15.179Z,101797.00
2019-05-06T05:20:46.763Z,101795.00
2019-05-06T05:23:16.138Z,101798.00
2019-05-06T05:25:45.669Z,101803.00
2019-05-06T05:28:15.606Z,101802.00
2019-05-06T05:30:45.470Z,101812.00
2019-05-06T05:33:16.268Z,101810.00
2019-05-06T05:35:45.771Z,101817.00
2019-05-06T05:38:15.471Z,101831.00
2019-05-06T05:40:45.386Z,101825.00
2019-05-06T05:43:25.464Z,101824.00
2019-05-06T05:45:55.162Z,101824.00
2019-05-06T05:48:42.335Z,101823.00
2019-05-06T05:51:12.752Z,101833.00
2019-05-06T05:53:42.679Z,101836.00
2019-05-06T05:56:12.997Z,101831.00
2019-05-06T05:58:42.680Z,101828.00
2019-05-06T06:01:12.683Z,101827.00
2019-05-06T06:03:42.462Z,101829.00
2019-05-06T06:06:12.617Z,101826.00
2019-05-06T06:08:43.351Z,101831.00
2019-05-06T06:11:14.751Z,101834.00
2019-05-06T06:13:44.238Z,101827.00
2019-05-06T06:16:32.858Z,101821.00
2019-05-06T06:19:09.987Z,101819.00
2019-05-06T06:21:42.822Z,101826.00
2019-05-06T06:24:14.163Z,101819.00
2019-05-06T06:26:43.702Z,101820.00
2019-05-06T06:29:13.664Z,101821.00
2019-05-06T06:31:47.456Z,101814.00
2019-05-06T06:34:27.691Z,101806.00
2019-05-06T06:37:02.598Z,101802.00
2019-05-06T06:39:37.092Z,101800.00
2019-05-06T06:42:06.700Z,101798.00
2019-05-06T06:44:36.588Z,101799.00
2019-05-06T06:47:06.134Z,101797.00
2019-05-06T06:49:35.767Z,101798.00
2019-05-06T06:52:10.732Z,101796.00
2019-05-06T06:54:36.451Z,101797.00
2019-05-06T06:57:12.615Z,101800.00
2019-05-06T06:59:43.069Z,101790.00
2019-05-06T07:02:27.070Z,101792.00
2019-05-06T07:05:04.493Z,101793.00
2019-05-06T07:07:43.603Z,101789.00
2019-05-06T07:10:12.949Z,101786.00
2019-05-06T07:12:42.768Z,101788.00
2019-05-06T07:15:12.684Z,101786.00
2019-05-06T07:17:42.219Z,101782.00
2019-05-06T07:20:16.248Z,101784.00
2019-05-06T07:22:45.759Z,101786.00
2019-05-06T07:25:15.368Z,101773.00
2019-05-06T07:27:44.848Z,101767.00
2019-05-06T07:30:15.146Z,101779.00
2019-05-06T07:32:44.629Z,101772.00
2019-05-06T07:35:14.264Z,101778.00
2019-05-06T07:37:43.765Z,101781.00
2019-05-06T07:40:13.553Z,101783.00
2019-05-06T07:42:44.676Z,101786.00
2019-05-06T07:45:15.870Z,101795.00
2019-05-06T07:47:55.732Z,101785.00
2019-05-06T07:50:25.262Z,101790.00
2019-05-06T07:53:07.099Z,101788.00
2019-05-06T07:55:38.459Z,101789.00
2019-05-06T07:58:08.272Z,101788.00
2019-05-06T08:00:38.188Z,101785.00
2019-05-06T08:03:07.890Z,101783.00
2019-05-06T08:05:37.390Z,101777.00
2019-05-06T08:08:07.860Z,101779.00
2019-05-06T08:10:37.504Z,101774.00
2019-05-06T08:13:07.008Z,101779.00
2019-05-06T08:15:36.626Z,101785.00
2019-05-06T08:18:06.147Z,101776.00
2019-05-06T08:20:38.433Z,101772.00
2019-05-06T08:23:22.053Z,101763.00
2019-05-06T08:26:02.237Z,101764.00
2019-05-06T08:28:37.425Z,101761.00
2019-05-06T08:30:55.427Z,101762.00
2019-05-06T08:33:27.583Z,101763.00
2019-05-06T08:36:10.578Z,101762.00
2019-05-06T08:38:27.367Z,101765.00
2019-05-06T08:40:56.919Z,101760.00
2019-05-06T08:43:26.399Z,101768.00
2019-05-06T08:45:55.889Z,101769.00
2019-05-06T08:48:25.495Z,101756.00
2019-05-06T08:50:56.655Z,101765.00
2019-05-06T08:53:32.927Z,101773.00
2019-05-06T08:56:04.081Z,101775.00
2019-05-06T08:58:46.211Z,101776.00
2019-05-06T09:01:29.291Z,101771.00
2019-05-06T09:04:08.354Z,101778.00
2019-05-06T09:06:33.932Z,101778.00
2019-05-06T09:09:02.464Z,101782.00
2019-05-06T09:11:32.341Z,101776.00
2019-05-06T09:14:03.417Z,101772.00
2019-05-06T09:16:33.314Z,101777.00
2019-05-06T09:19:04.603Z,101778.00
2019-05-06T09:21:34.459Z,101780.00
2019-05-06T09:24:04.148Z,101776.00
2019-05-06T09:26:43.074Z,101775.00
2019-05-06T09:29:13.966Z,101768.00
2019-05-06T09:31:45.120Z,101780.00
2019-05-06T09:34:16.261Z,101777.00
2019-05-06T09:36:52.042Z,101784.00
2019-05-06T09:39:18.614Z,101782.00
2019-05-06T09:41:49.279Z,101777.00
2019-05-06T09:44:19.140Z,101780.00
2019-05-06T09:46:48.618Z,101774.00
2019-05-06T09:49:22.966Z,101775.00
2019-05-06T09:51:52.953Z,101779.00
2019-05-06T09:54:27.128Z,101788.00
2019-05-06T09:56:58.343Z,101786.00
2019-05-06T09:59:27.846Z,101795.00
2019-05-06T10:01:57.346Z,101784.00
2019-05-06T10:04:26.795Z,101788.00
2019-05-06T10:06:59.939Z,101788.00
2019-05-06T10:09:27.638Z,101788.00
2019-05-06T10:11:57.165Z,101792.00
2019-05-06T10:14:26.726Z,101801.00
2019-05-06T10:16:56.337Z,101796.00
2019-05-06T10:19:25.952Z,101800.00
2019-05-06T10:21:55.433Z,101801.00
2019-05-06T10:24:25.005Z,101806.00
2019-05-06T10:26:56.249Z,101797.00
2019-05-06T10:29:32.620Z,101809.00
2019-05-06T10:32:15.390Z,101808.00
2019-05-06T10:34:44.890Z,101797.00
2019-05-06T10:37:26.567Z,101804.00
2019-05-06T10:40:03.492Z,101806.00
2019-05-06T10:42:42.898Z,101801.00
2019-05-06T10:45:32.579Z,101802.00
2019-05-06T10:48:02.543Z,101795.00
2019-05-06T10:50:33.652Z,101798.00
2019-05-06T10:53:07.410Z,101784.00
2019-05-06T10:55:38.610Z,101783.00
2019-05-06T10:58:08.234Z,101784.00
2019-05-06T11:00:38.012Z,101782.00
2019-05-06T11:03:23.443Z,101770.00
2019-05-06T11:05:53.623Z,101767.00
2019-05-06T11:08:23.222Z,101767.00
2019-05-06T11:10:53.473Z,101770.00
2019-05-06T11:13:24.460Z,101758.00
2019-05-06T11:15:55.670Z,101762.00
2019-05-06T11:18:25.272Z,101763.00
2019-05-06T11:20:56.285Z,101757.00
2019-05-06T11:23:26.249Z,101746.00
2019-05-06T11:25:55.722Z,101743.00
2019-05-06T11:28:43.148Z,101742.00
2019-05-06T11:31:17.006Z,101737.00
2019-05-06T11:34:04.218Z,101737.00
2019-05-06T11:36:52.374Z,101734.00
2019-05-06T11:39:24.996Z,101740.00
2019-05-06T11:42:15.325Z,101733.00
2019-05-06T11:44:25.689Z,101740.00
2019-05-06T11:46:55.320Z,101732.00
2019-05-06T11:49:24.828Z,101740.00
2019-05-06T11:51:54.298Z,101729.00
2019-05-06T11:54:24.659Z,101725.00
2019-05-06T11:56:58.130Z,101732.00
2019-05-06T11:59:25.827Z,101722.00
2019-05-06T12:02:02.923Z,101724.00
2019-05-06T12:04:53.318Z,101731.00
2019-05-06T12:07:24.497Z,101726.00
2019-05-06T12:09:54.678Z,101723.00
2019-05-06T12:12:24.251Z,101721.00
2019-05-06T12:14:53.788Z,101725.00
2019-05-06T12:17:23.252Z,101712.00
2019-05-06T12:19:53.074Z,101711.00
2019-05-06T12:22:24.455Z,101721.00
2019-05-06T12:24:54.027Z,101712.00
2019-05-06T12:27:43.019Z,101708.00
2019-05-06T12:30:15.390Z,101709.00
2019-05-06T12:32:46.467Z,101702.00
2019-05-06T12:35:16.111Z,101710.00
2019-05-06T12:37:47.362Z,101716.00
2019-05-06T12:40:17.171Z,101707.00
2019-05-06T12:42:53.225Z,101701.00
2019-05-06T12:45:26.651Z,101702.00
2019-05-06T12:47:57.785Z,101708.00
2019-05-06T12:50:27.251Z,101711.00
2019-05-06T12:52:57.812Z,101711.00
2019-05-06T12:55:27.643Z,101700.00
2019-05-06T12:57:57.188Z,101694.00
2019-05-06T13:00:28.796Z,101689.00
2019-05-06T13:02:58.464Z,101694.00
2019-05-06T13:05:28.036Z,101693.00
2019-05-06T13:07:57.525Z,101687.00
2019-05-06T13:10:28.236Z,101691.00
2019-05-06T13:12:59.333Z,101683.00
2019-05-06T13:15:28.813Z,101679.00
2019-05-06T13:17:58.317Z,101674.00
2019-05-06T13:20:29.419Z,101678.00
2019-05-06T13:23:15.945Z,101673.00
2019-05-06T13:25:45.110Z,101679.00
2019-05-06T13:28:13.585Z,101680.00
2019-05-06T13:30:43.489Z,101677.00
2019-05-06T13:33:34.255Z,101672.00
2019-05-06T13:36:02.937Z,101672.00
2019-05-06T13:38:32.488Z,101680.00
2019-05-06T13:41:03.248Z,101676.00
2019-05-06T13:43:34.704Z,101675.00
2019-05-06T13:46:23.486Z,101668.00
2019-05-06T13:49:02.748Z,101680.00
2019-05-06T13:51:39.190Z,101680.00
2019-05-06T13:54:08.737Z,101672.00
2019-05-06T13:56:38.193Z,101676.00
2019-05-06T13:59:07.719Z,101685.00
2019-05-06T14:01:43.905Z,101694.00
2019-05-06T14:04:14.640Z,101708.00
2019-05-06T14:06:44.114Z,101717.00
2019-05-06T14:09:28.734Z,101729.00
2019-05-06T14:11:44.899Z,101728.00
2019-05-06T14:14:14.334Z,101734.00
2019-05-06T14:16:43.973Z,101754.00
2019-05-06T14:19:13.418Z,101760.00
2019-05-06T14:21:43.314Z,101765.00
2019-05-06T14:24:13.504Z,101767.00
2019-05-06T14:27:03.849Z,101769.00
2019-05-06T14:29:34.940Z,101762.00
2019-05-06T14:32:04.397Z,101759.00
2019-05-06T14:34:33.835Z,101748.00
2019-05-06T14:37:03.314Z,101736.00
2019-05-06T14:39:48.537Z,101726.00
2019-05-06T14:42:05.853Z,101715.00
2019-05-06T14:44:35.416Z,101700.00
2019-05-06T14:47:09.484Z,101705.00
2019-05-06T14:49:39.063Z,101707.00
2019-05-06T14:52:08.620Z,101701.00
2019-05-06T14:54:41.661Z,101693.00
2019-05-06T14:57:12.692Z,101692.00
2019-05-06T14:59:42.377Z,101686.00
2019-05-06T15:02:13.256Z,101682.00
2019-05-06T15:04:43.575Z,101683.00
2019-05-06T15:07:13.323Z,101691.00
2019-05-06T15:09:57.993Z,101686.00
2019-05-06T15:12:14.278Z,101693.00
2019-05-06T15:14:43.752Z,101685.00
2019-05-06T15:17:14.420Z,101679.00
2019-05-06T15:19:44.126Z,101679.00
2019-05-06T15:22:15.244Z,101668.00
2019-05-06T15:24:44.732Z,101660.00
2019-05-06T15:27:14.009Z,101660.00
2019-05-06T15:29:48.543Z,101655.00
2019-05-06T15:32:23.983Z,101659.00
2019-05-06T15:34:57.685Z,101648.00
2019-05-06T15:37:42.514Z,101657.00
2019-05-06T15:40:12.733Z,101654.00
2019-05-06T15:42:42.635Z,101652.00
2019-05-06T15:45:12.751Z,101651.00
2019-05-06T15:47:42.762Z,101659.00
2019-05-06T15:50:13.415Z,101662.00
2019-05-06T15:52:43.683Z,101654.00
2019-05-06T15:55:14.378Z,101660.00
2019-05-06T15:57:43.849Z,101647.00
2019-05-06T16:00:16.423Z,101648.00
2019-05-06T16:02:45.920Z,101642.00
2019-05-06T16:05:19.803Z,101639.00
2019-05-06T16:07:47.044Z,101643.00
2019-05-06T16:10:18.667Z,101641.00
2019-05-06T16:12:49.386Z,101643.00
2019-05-06T16:15:19.684Z,101646.00
2019-05-06T16:17:49.218Z,101640.00
2019-05-06T16:20:18.760Z,101645.00
2019-05-06T16:22:52.095Z,101648.00
2019-05-06T16:25:21.661Z,101647.00
2019-05-06T16:27:54.668Z,101644.00
2019-05-06T16:30:24.663Z,101636.00
2019-05-06T16:32:54.227Z,101642.00
2019-05-06T16:35:23.783Z,101642.00
2019-05-06T16:37:53.250Z,101636.00
2019-05-06T16:40:23.447Z,101633.00
2019-05-06T16:42:54.144Z,101631.00
2019-05-06T16:45:24.216Z,101623.00
2019-05-06T16:47:53.809Z,101635.00
2019-05-06T16:50:24.313Z,101626.00
2019-05-06T16:52:53.826Z,101630.00
2019-05-06T16:55:25.239Z,101632.00
2019-05-06T16:57:59.348Z,101632.00
2019-05-06T17:00:32.194Z,101622.00
2019-05-06T17:03:03.491Z,101636.00
2019-05-06T17:05:52.006Z,101625.00
2019-05-06T17:08:23.472Z,101624.00
2019-05-06T17:10:53.171Z,101626.00
2019-05-06T17:13:22.903Z,101629.00
2019-05-06T17:15:52.965Z,101629.00
2019-05-06T17:18:22.800Z,101630.00
2019-05-06T17:20:52.312Z,101628.00
2019-05-06T17:23:22.447Z,101619.00
2019-05-06T17:25:52.153Z,101616.00
2019-05-06T17:28:41.395Z,101615.00
2019-05-06T17:31:13.225Z,101623.00
2019-05-06T17:33:47.069Z,101623.00
2019-05-06T17:36:20.768Z,101627.00
2019-05-06T17:38:54.466Z,101627.00
2019-05-06T17:41:26.679Z,101629.00
2019-05-06T17:43:55.021Z,101631.00
2019-05-06T17:46:33.035Z,101629.00
2019-05-06T17:49:04.575Z,101628.00
2019-05-06T17:51:42.596Z,101635.00
2019-05-06T17:54:12.382Z,101629.00
2019-05-06T17:56:42.039Z,101634.00
2019-05-06T17:59:11.501Z,101634.00
2019-05-06T18:01:42.634Z,101637.00
2019-05-06T18:04:12.689Z,101645.00
2019-05-06T18:06:42.625Z,101644.00
2019-05-06T18:09:12.825Z,101637.00
2019-05-06T18:11:51.242Z,101643.00
2019-05-06T18:14:13.652Z,101648.00
2019-05-06T18:16:43.073Z,101652.00
2019-05-06T18:19:12.908Z,101654.00
2019-05-06T18:21:42.675Z,101651.00
2019-05-06T18:24:12.889Z,101652.00
2019-05-06T18:26:42.722Z,101656.00
2019-05-06T18:29:12.620Z,101656.00
2019-05-06T18:31:42.895Z,101663.00
2019-05-06T18:34:13.029Z,101658.00
2019-05-06T18:36:43.139Z,101662.00
2019-05-06T18:39:12.794Z,101666.00
2019-05-06T18:41:42.310Z,101668.00
2019-05-06T18:44:12.170Z,101663.00
2019-05-06T18:46:42.140Z,101666.00
2019-05-06T18:49:13.086Z,101665.00
2019-05-06T18:51:42.985Z,101668.00
2019-05-06T18:54:12.601Z,101668.00
2019-05-06T18:56:42.933Z,101668.00
2019-05-06T18:59:12.655Z,101669.00
2019-05-06T19:01:43.303Z,101664.00
2019-05-06T19:04:14.821Z,101668.00
2019-05-06T19:06:44.324Z,101674.00
2019-05-06T19:09:27.270Z,101677.00
2019-05-06T19:11:56.790Z,101676.00
2019-05-06T19:14:26.337Z,101678.00
2019-05-06T19:16:55.823Z,101681.00
2019-05-06T19:19:25.393Z,101677.00
2019-05-06T19:21:55.022Z,101683.00
2019-05-06T19:24:24.481Z,101687.00
2019-05-06T19:26:56.913Z,101684.00
2019-05-06T19:29:26.479Z,101689.00
2019-05-06T19:31:55.983Z,101691.00
2019-05-06T19:34:28.595Z,101700.00
2019-05-06T19:36:58.139Z,101694.00
2019-05-06T19:39:27.589Z,101695.00
2019-05-06T19:41:57.062Z,101702.00
2019-05-06T19:44:26.673Z,101707.00
2019-05-06T19:46:56.145Z,101701.00
2019-05-06T19:49:25.642Z,101705.00
2019-05-06T19:51:55.138Z,101702.00
2019-05-06T19:54:24.597Z,101700.00
2019-05-06T19:56:54.081Z,101706.00
2019-05-06T19:59:23.662Z,101706.00
2019-05-06T20:01:53.114Z,101706.00
2019-05-06T20:04:22.969Z,101706.00
2019-05-06T20:06:56.798Z,101705.00
2019-05-06T20:09:27.979Z,101698.00
2019-05-06T20:11:59.095Z,101696.00
2019-05-06T20:14:28.668Z,101698.00
2019-05-06T20:16:58.131Z,101698.00
2019-05-06T20:19:31.015Z,101697.00
2019-05-06T20:21:58.942Z,101698.00
2019-05-06T20:24:28.402Z,101706.00
2019-05-06T20:26:57.861Z,101702.00
2019-05-06T20:29:27.435Z,101708.00
2019-05-06T20:31:56.939Z,101706.00
2019-05-06T20:34:26.408Z,101702.00
2019-05-06T20:36:55.992Z,101696.00
2019-05-06T20:39:25.507Z,101701.00
2019-05-06T20:41:54.998Z,101708.00
2019-05-06T20:44:24.513Z,101706.00
2019-05-06T20:46:54.026Z,101705.00
2019-05-06T20:49:23.509Z,101696.00
2019-05-06T20:51:52.996Z,101699.00
2019-05-06T20:54:23.722Z,101707.00
2019-05-06T20:56:53.262Z,101708.00
2019-05-06T20:59:23.019Z,101709.00
2019-05-06T21:01:52.600Z,101708.00
2019-05-06T21:04:22.891Z,101706.00
2019-05-06T21:06:52.478Z,101705.00
2019-05-06T21:09:23.515Z,101706.00
2019-05-06T21:11:53.006Z,101705.00
2019-05-06T21:14:22.803Z,101709.00
2019-05-06T21:16:52.584Z,101700.00
2019-05-06T21:19:22.399Z,101695.00
2019-05-06T21:21:52.764Z,101704.00
2019-05-06T21:24:22.737Z,101697.00
2019-05-06T21:26:53.132Z,101701.00
2019-05-06T21:29:23.262Z,101699.00
2019-05-06T21:31:53.187Z,101698.00
2019-05-06T21:34:22.646Z,101702.00
2019-05-06T21:36:53.251Z,101702.00
2019-05-06T21:39:22.868Z,101692.00
2019-05-06T21:41:52.347Z,101698.00
2019-05-06T21:44:22.867Z,101697.00
2019-05-06T21:46:54.051Z,101695.00
2019-05-06T21:49:23.569Z,101693.00
2019-05-06T21:51:53.091Z,101694.00
2019-05-06T21:54:23.250Z,101689.00
2019-05-06T21:56:53.311Z,101694.00
2019-05-06T21:59:23.033Z,101686.00
2019-05-06T22:01:52.620Z,101686.00
2019-05-06T22:04:23.147Z,101687.00
2019-05-06T22:06:52.861Z,101682.00
2019-05-06T22:09:22.685Z,101679.00
2019-05-06T22:11:52.930Z,101680.00
2019-05-06T22:14:23.115Z,101682.00
2019-05-06T22:16:53.332Z,101682.00
2019-05-06T22:19:22.853Z,101679.00
2019-05-06T22:21:59.757Z,101678.00
2019-05-06T22:24:40.066Z,101678.00
2019-05-06T22:27:09.508Z,101673.00
2019-05-06T22:29:38.951Z,101681.00
2019-05-06T22:32:08.411Z,101674.00
2019-05-06T22:34:37.911Z,101682.00
2019-05-06T22:37:07.485Z,101673.00
2019-05-06T22:39:37.028Z,101677.00
2019-05-06T22:42:06.740Z,101680.00
2019-05-06T22:44:36.329Z,101674.00
2019-05-06T22:47:06.174Z,101678.00
2019-05-06T22:49:35.870Z,101671.00
2019-05-06T22:52:05.661Z,101674.00
2019-05-06T22:54:35.121Z,101671.00
2019-05-06T22:57:04.672Z,101668.00
2019-05-06T22:59:34.147Z,101668.00
2019-05-06T23:02:08.099Z,101665.00
2019-05-06T23:04:43.077Z,101664.00
2019-05-06T23:07:14.262Z,101661.00
2019-05-06T23:09:43.855Z,101665.00
2019-05-06T23:12:13.412Z,101671.00
2019-05-06T23:14:43.054Z,101678.00
2019-05-06T23:17:12.838Z,101678.00
2019-05-06T23:19:42.825Z,101675.00
2019-05-06T23:22:12.471Z,101676.00
2019-05-06T23:24:41.923Z,101668.00
2019-05-06T23:27:12.688Z,101663.00
2019-05-06T23:29:42.856Z,101669.00
2019-05-06T23:32:14.061Z,101671.00
2019-05-06T23:34:43.682Z,101672.00
2019-05-06T23:37:18.439Z,101677.00
2019-05-06T23:40:43.038Z,101665.00
2019-05-06T23:44:06.590Z,101656.00
2019-05-06T23:47:31.658Z,101665.00
2019-05-06T23:50:55.840Z,101673.00
2019-05-06T23:54:21.930Z,101663.00
2019-05-06T23:56:49.568Z,101665.00
2019-05-06T23:59:19.446Z,101665.00
